Terminal Aerodrome Forecast
Issued by NWS Cleveland, OH

Home | Current Version | Previous Version | Text Only | Print | Product List | Glossary Off
Versions: 1 2 3 4 5 6 7 8 9 10 11 12 13 14 15 16

000
FTUS41 KCLE 231121
TAFMFD
TAF
KMFD 231121Z 2312/2412 12008KT P6SM SCT250
     FM231500 13010KT P6SM BKN250
     FM232300 16010KT P6SM OVC100
     FM240600 19010G15KT P6SM -SHRA OVC035
     FM240800 20010G20KT 6SM -SHRA BR OVC025
     FM241100 20015G25KT P6SM OVC035=

USA.gov is the U.S. government's official web portal to all federal, state and local government web resources and services.